Back to Top

Language: 

My Weather Underground Personal Weather Station Historical Data with Graphs...

Delerius Weather Station Historical Data
Daily Summary for August 19, 2017 Units:  English    Metric   Both
« Previous Day
Next Day »
Daily Weekly Monthly Yearly Custom
  High: Low: Average:
Temperature: 62.8 °F 50.7 °F 57.4 °F
Dew Point: 55.5 °F 47.0 °F 50.9 °F
Humidity: 90 % 61 % 79 %
Wind Speed: 17.0 mph 0.0 mph 10.5 mph
Wind Gust: 32.0 mph - -
Wind:- - West
Pressure: 30.05 in 29.77 in -
Precipitation: 0.02 in    
Historical Graphs
 
 
Tabular Data for August 19, 2017
Time Temperature Dew Point Pressure Wind Wind Speed Wind Gust Humidity Rainfall Rate (Hourly) solar Conditions
00:02 52.7 °F 48.0 °F 29.77 in WSW 9.0 mph 14.0 mph 84 % 0.00 in 0 W/m2
00:03 52.7 °F 48.0 °F 29.77 in WSW 9.0 mph 14.0 mph 84 % 0.00 in 0 W/m2
00:08 52.5 °F 47.8 °F 29.77 in WSW 8.0 mph 13.0 mph 84 % 0.00 in 0 W/m2
00:13 52.3 °F 48.0 °F 29.77 in WSW 7.0 mph 12.0 mph 85 % 0.00 in 0 W/m2
00:18 52.3 °F 48.0 °F 29.78 in WSW 6.0 mph 9.0 mph 85 % 0.00 in 0 W/m2
00:23 52.2 °F 47.8 °F 29.78 in West 5.0 mph 9.0 mph 85 % 0.00 in 0 W/m2
00:28 52.2 °F 47.8 °F 29.78 in West 5.0 mph 9.0 mph 85 % 0.00 in 0 W/m2
00:33 52.0 °F 47.6 °F 29.78 in WSW 4.0 mph 7.0 mph 85 % 0.00 in 0 W/m2
00:38 51.8 °F 47.7 °F 29.78 in WSW 2.0 mph 6.0 mph 86 % 0.00 in 0 W/m2
00:43 51.6 °F 47.6 °F 29.78 in WSW 1.0 mph 5.0 mph 86 % 0.00 in 0 W/m2
00:48 51.4 °F 47.4 °F 29.78 in Calm   5.0 mph 86 % 0.00 in 0 W/m2
00:53 51.3 °F 47.2 °F 29.77 in Calm   5.0 mph 86 % 0.00 in 0 W/m2
00:59 51.1 °F 47.3 °F 29.77 in Calm   5.0 mph 87 % 0.00 in 0 W/m2
01:04 50.9 °F 47.2 °F 29.78 in Calm   5.0 mph 87 % 0.00 in 0 W/m2
01:09 50.7 °F 47.0 °F 29.78 in Calm   4.0 mph 87 % 0.00 in 0 W/m2
01:14 50.7 °F 47.0 °F 29.78 in Calm   4.0 mph 87 % 0.00 in 0 W/m2
01:19 50.7 °F 47.3 °F 29.78 in WSW 1.0 mph 8.0 mph 88 % 0.00 in 0 W/m2
01:24 50.7 °F 47.6 °F 29.78 in WSW 1.0 mph 8.0 mph 89 % 0.00 in 0 W/m2
01:29 50.9 °F 47.5 °F 29.78 in Calm   5.0 mph 88 % 0.00 in 0 W/m2
01:34 50.7 °F 47.6 °F 29.78 in Calm     89 % 0.00 in 0 W/m2
01:39 50.7 °F 47.6 °F 29.78 in Calm     89 % 0.00 in 0 W/m2
01:44 50.7 °F 47.9 °F 29.78 in WSW 1.0 mph 5.0 mph 90 % 0.00 in 0 W/m2
01:49 51.1 °F 48.2 °F 29.78 in WSW 2.0 mph 6.0 mph 90 % 0.00 in 0 W/m2
01:54 51.4 °F 48.6 °F 29.78 in WSW 3.0 mph 9.0 mph 90 % 0.00 in 0 W/m2
01:59 51.8 °F 49.0 °F 29.78 in WSW 5.0 mph 9.0 mph 90 % 0.00 in 0 W/m2
02:04 52.3 °F 49.5 °F 29.78 in WSW 7.0 mph 12.0 mph 90 % 0.00 in 0 W/m2
02:09 52.9 °F 50.0 °F 29.78 in WSW 8.0 mph 13.0 mph 90 % 0.00 in 0 W/m2
02:14 53.2 °F 50.1 °F 29.79 in West 8.0 mph 13.0 mph 89 % 0.00 in 0 W/m2
02:19 53.4 °F 50.3 °F 29.79 in West 8.0 mph 14.0 mph 89 % 0.00 in 0 W/m2
02:24 53.8 °F 50.3 °F 29.79 in West 8.0 mph 14.0 mph 88 % 0.00 in 0 W/m2
02:29 54.0 °F 50.5 °F 29.79 in West 8.0 mph 13.0 mph 88 % 0.00 in 0 W/m2
02:34 54.0 °F 50.2 °F 29.79 in West 7.0 mph 12.0 mph 87 % 0.00 in 0 W/m2
02:39 54.0 °F 50.2 °F 29.79 in West 7.0 mph 13.0 mph 87 % 0.00 in 0 W/m2
02:44 54.1 °F 50.4 °F 29.79 in West 6.0 mph 13.0 mph 87 % 0.00 in 0 W/m2
02:49 54.1 °F 50.4 °F 29.79 in West 4.0 mph 9.0 mph 87 % 0.00 in 0 W/m2
02:54 54.0 °F 50.2 °F 29.80 in West 3.0 mph 8.0 mph 87 % 0.00 in 0 W/m2
02:59 54.0 °F 50.2 °F 29.80 in WSW 3.0 mph 6.0 mph 87 % 0.00 in 0 W/m2
03:05 54.0 °F 50.2 °F 29.80 in WSW 2.0 mph 8.0 mph 87 % 0.00 in 0 W/m2
03:10 54.0 °F 50.5 °F 29.80 in West 4.0 mph 13.0 mph 88 % 0.00 in 0 W/m2
03:15 54.1 °F 50.7 °F 29.80 in West 8.0 mph 16.0 mph 88 % 0.00 in 0 W/m2
03:20 54.1 °F 50.7 °F 29.80 in WNW 8.0 mph 16.0 mph 88 % 0.00 in 0 W/m2
03:25 54.3 °F 50.8 °F 29.80 in WNW 8.0 mph 16.0 mph 88 % 0.00 in 0 W/m2
03:30 54.3 °F 50.8 °F 29.80 in WNW 8.0 mph 13.0 mph 88 % 0.00 in 0 W/m2
03:35 54.5 °F 51.0 °F 29.80 in WNW 9.0 mph 20.0 mph 88 % 0.00 in 0 W/m2
03:40 54.5 °F 51.0 °F 29.81 in WNW 10.0 mph 20.0 mph 88 % 0.00 in 0 W/m2
03:45 54.5 °F 50.7 °F 29.81 in WNW 10.0 mph 16.0 mph 87 % 0.00 in 0 W/m2
03:50 54.7 °F 50.9 °F 29.80 in WNW 10.0 mph 20.0 mph 87 % 0.00 in 0 W/m2
03:55 54.7 °F 50.9 °F 29.81 in WNW 9.0 mph 18.0 mph 87 % 0.00 in 0 W/m2
04:00 54.7 °F 50.6 °F 29.81 in WNW 8.0 mph 15.0 mph 86 % 0.00 in 0 W/m2
04:05 54.7 °F 50.6 °F 29.81 in WNW 8.0 mph 15.0 mph 86 % 0.00 in 0 W/m2
04:10 54.7 °F 50.6 °F 29.81 in WNW 7.0 mph 14.0 mph 86 % 0.00 in 0 W/m2
04:15 54.5 °F 50.4 °F 29.81 in West 7.0 mph 14.0 mph 86 % 0.00 in 0 W/m2
04:20 54.3 °F 50.2 °F 29.81 in West 6.0 mph 13.0 mph 86 % 0.00 in 0 W/m2
04:24 54.3 °F 50.2 °F 29.81 in West 8.0 mph 20.0 mph 86 % 0.00 in 0 W/m2
04:25 54.3 °F 50.2 °F 29.81 in West 8.0 mph 20.0 mph 86 % 0.00 in 0 W/m2
04:30 54.3 °F 50.2 °F 29.81 in West 9.0 mph 20.0 mph 86 % 0.00 in 0 W/m2
04:35 54.3 °F 50.2 °F 29.81 in West 10.0 mph 19.0 mph 86 % 0.00 in 0 W/m2
04:40 54.5 °F 50.1 °F 29.81 in West 11.0 mph 20.0 mph 85 % 0.00 in 0 W/m2
04:45 54.5 °F 50.1 °F 29.81 in West 11.0 mph 20.0 mph 85 % 0.00 in 0 W/m2
04:50 54.5 °F 50.1 °F 29.81 in WNW 11.0 mph 22.0 mph 85 % 0.00 in 0 W/m2
04:55 54.5 °F 49.8 °F 29.81 in WNW 12.0 mph 22.0 mph 84 % 0.00 in 0 W/m2
05:00 54.5 °F 49.8 °F 29.81 in WNW 13.0 mph 27.0 mph 84 % 0.00 in 0 W/m2
05:05 54.5 °F 49.8 °F 29.81 in West 15.0 mph 27.0 mph 84 % 0.00 in 0 W/m2
05:10 54.7 °F 49.9 °F 29.82 in WNW 15.0 mph 25.0 mph 84 % 0.00 in 0 W/m2
05:15 54.5 °F 49.8 °F 29.82 in WNW 13.0 mph 23.0 mph 84 % 0.00 in 0 W/m2
05:20 54.5 °F 49.8 °F 29.82 in WNW 13.0 mph 24.0 mph 84 % 0.00 in 0 W/m2
05:25 54.3 °F 49.6 °F 29.82 in WNW 13.0 mph 24.0 mph 84 % 0.00 in 0 W/m2
05:30 54.3 °F 49.6 °F 29.82 in West 13.0 mph 20.0 mph 84 % 0.00 in 0 W/m2
05:35 54.3 °F 49.6 °F 29.82 in West 13.0 mph 32.0 mph 84 % 0.00 in 0 W/m2
05:40 54.3 °F 49.6 °F 29.83 in West 12.0 mph 32.0 mph 84 % 0.00 in 0 W/m2
05:45 54.3 °F 49.6 °F 29.83 in West 12.0 mph 22.0 mph 84 % 0.00 in 0 W/m2
05:50 54.3 °F 49.6 °F 29.82 in West 13.0 mph 22.0 mph 84 % 0.00 in 0 W/m2
05:55 54.3 °F 49.6 °F 29.83 in West 13.0 mph 23.0 mph 84 % 0.00 in 5 W/m2
06:00 54.3 °F 49.6 °F 29.83 in West 13.0 mph 23.0 mph 84 % 0.00 in 9 W/m2
06:05 54.3 °F 49.9 °F 29.83 in West 12.0 mph 23.0 mph 85 % 0.00 in 11 W/m2
06:11 54.3 °F 49.9 °F 29.83 in West 11.0 mph 23.0 mph 85 % 0.00 in 11 W/m2
06:16 54.3 °F 49.9 °F 29.83 in West 12.0 mph 20.0 mph 85 % 0.00 in 14 W/m2
06:21 54.5 °F 50.1 °F 29.83 in West 13.0 mph 20.0 mph 85 % 0.00 in 18 W/m2
06:26 54.5 °F 50.1 °F 29.83 in West 14.0 mph 26.0 mph 85 % 0.00 in 23 W/m2
06:31 54.7 °F 49.9 °F 29.83 in West 15.0 mph 26.0 mph 84 % 0.00 in 26 W/m2
06:36 54.7 °F 49.9 °F 29.83 in West 15.0 mph 24.0 mph 84 % 0.00 in 28 W/m2
06:41 54.9 °F 50.1 °F 29.83 in West 15.0 mph 24.0 mph 84 % 0.00 in 33 W/m2
06:46 54.9 °F 50.1 °F 29.83 in West 15.0 mph 24.0 mph 84 % 0.00 in 33 W/m2
06:51 55.0 °F 50.3 °F 29.83 in West 13.0 mph 24.0 mph 84 % 0.00 in 32 W/m2
06:56 55.0 °F 50.6 °F 29.83 in West 12.0 mph 23.0 mph 85 % 0.00 in 32 W/m2
07:01 55.2 °F 50.5 °F 29.84 in West 12.0 mph 22.0 mph 84 % 0.00 in 53 W/m2
07:06 55.6 °F 50.8 °F 29.84 in West 13.0 mph 22.0 mph 84 % 0.00 in 69 W/m2
07:11 55.8 °F 51.0 °F 29.84 in West 13.0 mph 22.0 mph 84 % 0.00 in 37 W/m2
07:16 55.9 °F 51.2 °F 29.84 in West 12.0 mph 22.0 mph 84 % 0.00 in 25 W/m2
07:21 55.8 °F 50.7 °F 29.84 in West 11.0 mph 19.0 mph 83 % 0.00 in 28 W/m2
07:26 55.6 °F 50.5 °F 29.85 in West 12.0 mph 19.0 mph 83 % 0.00 in 37 W/m2
07:31 55.8 °F 50.7 °F 29.84 in West 12.0 mph 21.0 mph 83 % 0.00 in 190 W/m2
07:36 55.9 °F 50.9 °F 29.85 in West 11.0 mph 21.0 mph 83 % 0.00 in 209 W/m2
07:41 56.5 °F 51.4 °F 29.85 in West 12.0 mph 25.0 mph 83 % 0.00 in 178 W/m2
07:46 56.8 °F 51.1 °F 29.85 in West 13.0 mph 25.0 mph 81 % 0.00 in 234 W/m2
07:51 57.2 °F 51.1 °F 29.86 in West 14.0 mph 29.0 mph 80 % 0.00 in 262 W/m2
07:56 57.6 °F 51.4 °F 29.86 in West 15.0 mph 29.0 mph 80 % 0.00 in 336 W/m2
08:01 57.9 °F 51.4 °F 29.86 in West 14.0 mph 23.0 mph 79 % 0.00 in 104 W/m2
08:06 57.9 °F 51.4 °F 29.86 in West 14.0 mph 23.0 mph 79 % 0.00 in 132 W/m2
08:08 57.7 °F 51.3 °F 29.86 in West 13.0 mph 23.0 mph 79 % 0.00 in 113 W/m2
08:13 57.7 °F 51.3 °F 29.86 in West 14.0 mph 25.0 mph 79 % 0.00 in 69 W/m2
08:18 57.6 °F 51.4 °F 29.86 in West 14.0 mph 25.0 mph 80 % 0.00 in 113 W/m2
08:23 57.7 °F 51.6 °F 29.86 in West 13.0 mph 22.0 mph 80 % 0.00 in 174 W/m2
08:28 57.7 °F 51.6 °F 29.86 in West 14.0 mph 22.0 mph 80 % 0.00 in 114 W/m2
08:33 57.7 °F 51.6 °F 29.86 in West 12.0 mph 22.0 mph 80 % 0.00 in 97 W/m2
08:36 57.7 °F 51.3 °F 29.86 in West 12.0 mph 25.0 mph 79 % 0.00 in 388 W/m2
08:41 57.9 °F 51.8 °F 29.87 in West 13.0 mph 25.0 mph 80 % 0.00 in 399 W/m2
08:46 58.5 °F 51.6 °F 29.87 in West 12.0 mph 21.0 mph 78 % 0.00 in 279 W/m2
08:51 58.8 °F 52.0 °F 29.87 in West 12.0 mph 23.0 mph 78 % 0.00 in 492 W/m2
08:56 59.0 °F 51.8 °F 29.87 in West 14.0 mph 24.0 mph 77 % 0.00 in 501 W/m2
09:01 59.5 °F 52.7 °F 29.87 in West 13.0 mph 24.0 mph 78 % 0.00 in 207 W/m2
09:06 59.4 °F 51.8 °F 29.87 in West 12.0 mph 21.0 mph 76 % 0.00 in 227 W/m2
09:11 59.4 °F 52.1 °F 29.87 in West 13.0 mph 25.0 mph 77 % 0.00 in 476 W/m2
09:16 59.5 °F 52.0 °F 29.87 in West 13.0 mph 25.0 mph 76 % 0.00 in 487 W/m2
09:21 59.7 °F 52.1 °F 29.88 in West 13.0 mph 26.0 mph 76 % 0.00 in 466 W/m2
09:26 60.1 °F 52.1 °F 29.87 in West 13.0 mph 26.0 mph 75 % 0.00 in 664 W/m2
09:31 60.4 °F 52.1 °F 29.88 in West 13.0 mph 24.0 mph 74 % 0.00 in 236 W/m2
09:36 59.9 °F 51.6 °F 29.88 in West 14.0 mph 23.0 mph 74 % 0.00 in 174 W/m2
09:41 59.5 °F 51.6 °F 29.88 in West 12.0 mph 23.0 mph 75 % 0.00 in 250 W/m2
09:46 59.0 °F 52.8 °F 29.88 in West 12.0 mph 21.0 mph 80 % 0.00 in 116 W/m2
09:51 58.1 °F 52.6 °F 29.88 in WSW 12.0 mph 21.0 mph 82 % 0.00 in 156 W/m2
09:56 57.6 °F 52.8 °F 29.88 in WSW 12.0 mph 19.0 mph 84 % 0.00 in 329 W/m2
10:01 57.6 °F 53.1 °F 29.89 in WSW 12.0 mph 20.0 mph 85 % 0.00 in 264 W/m2
10:06 57.6 °F 53.1 °F 29.89 in West 11.0 mph 20.0 mph 85 % 0.00 in 274 W/m2
10:11 57.6 °F 52.8 °F 29.89 in West 12.0 mph 22.0 mph 84 % 0.00 in 153 W/m2
10:12 57.6 °F 52.8 °F 29.89 in West 12.0 mph 22.0 mph 84 % 0.00 in 134 W/m2
10:17 57.6 °F 52.4 °F 29.89 in West 13.0 mph 23.0 mph 83 % 0.00 in 114 W/m2
10:22 57.7 °F 52.9 °F 29.89 in West 12.0 mph 23.0 mph 84 % 0.00 in 724 W/m2
10:27 58.3 °F 53.1 °F 29.89 in WSW 11.0 mph 19.0 mph 83 % 0.00 in 773 W/m2
10:32 58.8 °F 53.0 °F 29.88 in West 13.0 mph 22.0 mph 81 % 0.00 in 471 W/m2
10:37 59.5 °F 52.7 °F 29.88 in West 14.0 mph 23.0 mph 78 % 0.00 in 236 W/m2
10:42 59.5 °F 52.7 °F 29.88 in West 13.0 mph 23.0 mph 78 % 0.00 in 167 W/m2
10:47 59.4 °F 52.8 °F 29.89 in WSW 12.0 mph 20.0 mph 79 % 0.00 in 315 W/m2
10:52 58.8 °F 52.7 °F 29.89 in West 11.0 mph 21.0 mph 80 % 0.00 in 251 W/m2
10:57 59.0 °F 52.5 °F 29.89 in West 11.0 mph 21.0 mph 79 % 0.00 in 299 W/m2
11:03 59.2 °F 52.3 °F 29.89 in West 12.0 mph 23.0 mph 78 % 0.00 in 258 W/m2
11:08 59.2 °F 52.3 °F 29.90 in WSW 12.0 mph 23.0 mph 78 % 0.00 in 227 W/m2
11:13 59.2 °F 52.7 °F 29.90 in WSW 12.0 mph 19.0 mph 79 % 0.00 in 151 W/m2
11:18 58.6 °F 52.1 °F 29.90 in WSW 13.0 mph 23.0 mph 79 % 0.00 in 246 W/m2
11:23 58.3 °F 51.8 °F 29.89 in West 13.0 mph 23.0 mph 79 % 0.00 in 318 W/m2
11:28 58.3 °F 51.4 °F 29.89 in West 11.0 mph 20.0 mph 78 % 0.00 in 216 W/m2
11:33 58.3 °F 51.4 °F 29.90 in West 12.0 mph 23.0 mph 78 % 0.00 in 186 W/m2
11:38 58.5 °F 52.0 °F 29.90 in West 13.0 mph 23.0 mph 79 % 0.00 in 856 W/m2
11:43 59.7 °F 53.2 °F 29.90 in West 13.0 mph 24.0 mph 79 % 0.00 in 932 W/m2
11:48 60.6 °F 53.0 °F 29.90 in West 14.0 mph 28.0 mph 76 % 0.00 in 251 W/m2
11:53 60.1 °F 53.9 °F 29.91 in West 16.0 mph 29.0 mph 80 % 0.01 in 111 W/m2
11:58 58.6 °F 52.8 °F 29.91 in West 16.0 mph 29.0 mph 81 % 0.01 in 183 W/m2
12:03 58.3 °F 53.5 °F 29.91 in West 14.0 mph 26.0 mph 84 % 0.01 in 868 W/m2
12:08 58.6 °F 53.5 °F 29.90 in West 13.0 mph 27.0 mph 83 % 0.01 in 940 W/m2
12:13 59.2 °F 53.4 °F 29.91 in West 14.0 mph 27.0 mph 81 % 0.01 in 455 W/m2
12:18 59.2 °F 52.7 °F 29.91 in West 16.0 mph 27.0 mph 79 % 0.01 in 638 W/m2
12:23 59.9 °F 53.7 °F 29.91 in West 14.0 mph 27.0 mph 80 % 0.01 in 499 W/m2
12:28 60.6 °F 53.7 °F 29.91 in West 13.0 mph 26.0 mph 78 % 0.01 in 1042 W/m2
12:33 61.5 °F 53.2 °F 29.91 in West 15.0 mph 26.0 mph 74 % 0.01 in 1074 W/m2
12:38 62.2 °F 53.1 °F 29.91 in West 15.0 mph 26.0 mph 72 % 0.01 in 1025 W/m2
12:43 62.2 °F 52.3 °F 29.91 in West 15.0 mph 26.0 mph 70 % 0.01 in 327 W/m2
12:48 61.5 °F 51.6 °F 29.92 in West 14.0 mph 22.0 mph 70 % 0.01 in 142 W/m2
12:53 60.4 °F 52.1 °F 29.92 in West 15.0 mph 27.0 mph 74 % 0.00 in 185 W/m2
12:58 59.0 °F 52.1 °F 29.93 in West 16.0 mph 27.0 mph 78 % 0.00 in 141 W/m2
13:03 57.7 °F 52.3 °F 29.93 in WSW 13.0 mph 23.0 mph 82 % 0.01 in 246 W/m2
13:08 57.4 °F 52.9 °F 29.92 in West 10.0 mph 19.0 mph 85 % 0.01 in 884 W/m2
13:13 57.7 °F 53.9 °F 29.92 in West 10.0 mph 19.0 mph 87 % 0.01 in 253 W/m2
13:18 57.9 °F 54.1 °F 29.92 in West 9.0 mph 15.0 mph 87 % 0.01 in 334 W/m2
13:23 58.3 °F 54.4 °F 29.92 in WNW 9.0 mph 18.0 mph 87 % 0.01 in 297 W/m2
13:28 58.3 °F 53.8 °F 29.92 in WNW 11.0 mph 19.0 mph 85 % 0.01 in 160 W/m2
13:33 57.9 °F 52.8 °F 29.93 in WNW 13.0 mph 21.0 mph 83 % 0.01 in 188 W/m2
13:39 57.9 °F 53.4 °F 29.93 in West 12.0 mph 21.0 mph 85 % 0.01 in 278 W/m2
13:44 58.5 °F 54.3 °F 29.93 in WNW 9.0 mph 16.0 mph 86 % 0.01 in 455 W/m2
13:49 58.8 °F 54.3 °F 29.93 in WNW 9.0 mph 16.0 mph 85 % 0.01 in 464 W/m2
13:54 58.8 °F 54.0 °F 29.93 in WNW 10.0 mph 16.0 mph 84 % 0.01 in 160 W/m2
13:59 58.6 °F 54.1 °F 29.93 in WNW 9.0 mph 15.0 mph 85 % 0.01 in 121 W/m2
14:04 57.9 °F 53.1 °F 29.93 in WNW 11.0 mph 23.0 mph 84 % 0.01 in 162 W/m2
14:09 57.7 °F 53.6 °F 29.93 in WNW 12.0 mph 23.0 mph 86 % 0.01 in 951 W/m2
14:14 58.5 °F 54.9 °F 29.93 in WNW 11.0 mph 21.0 mph 88 % 0.01 in 923 W/m2
14:19 59.4 °F 55.5 °F 29.94 in WNW 10.0 mph 20.0 mph 87 % 0.01 in 921 W/m2
14:24 59.5 °F 53.4 °F 29.94 in WNW 13.0 mph 26.0 mph 80 % 0.01 in 239 W/m2
14:29 59.2 °F 53.0 °F 29.94 in WNW 14.0 mph 26.0 mph 80 % 0.01 in 320 W/m2
14:34 59.7 °F 54.5 °F 29.94 in West 11.0 mph 20.0 mph 83 % 0.01 in 830 W/m2
14:39 60.4 °F 53.9 °F 29.94 in West 12.0 mph 26.0 mph 79 % 0.01 in 809 W/m2
14:44 60.8 °F 52.5 °F 29.94 in West 16.0 mph 26.0 mph 74 % 0.01 in 807 W/m2
14:49 61.0 °F 51.1 °F 29.94 in West 17.0 mph 26.0 mph 70 % 0.01 in 309 W/m2
14:54 60.8 °F 51.7 °F 29.94 in WNW 15.0 mph 27.0 mph 72 % 0.01 in 397 W/m2
14:59 61.2 °F 52.1 °F 29.94 in WNW 14.0 mph 27.0 mph 72 % 0.00 in 652 W/m2
15:04 61.3 °F 51.9 °F 29.94 in West 13.0 mph 24.0 mph 71 % 0.00 in 592 W/m2
15:09 61.2 °F 51.7 °F 29.94 in West 13.0 mph 22.0 mph 71 % 0.00 in 211 W/m2
15:14 61.0 °F 51.9 °F 29.94 in West 12.0 mph 22.0 mph 72 % 0.00 in 211 W/m2
15:19 61.2 °F 50.9 °F 29.94 in West 13.0 mph 24.0 mph 69 % 0.00 in 719 W/m2
15:24 61.5 °F 51.6 °F 29.95 in West 14.0 mph 26.0 mph 70 % 0.00 in 740 W/m2
15:29 62.1 °F 51.8 °F 29.94 in West 15.0 mph 26.0 mph 69 % 0.00 in 784 W/m2
15:34 62.1 °F 51.4 °F 29.94 in West 16.0 mph 27.0 mph 68 % 0.00 in 188 W/m2
15:39 62.1 °F 51.4 °F 29.94 in West 15.0 mph 27.0 mph 68 % 0.00 in 183 W/m2
15:44 61.9 °F 51.6 °F 29.94 in West 14.0 mph 25.0 mph 69 % 0.00 in 779 W/m2
15:49 62.1 °F 51.4 °F 29.95 in West 15.0 mph 25.0 mph 68 % 0.00 in 708 W/m2
15:54 62.1 °F 51.8 °F 29.95 in West 16.0 mph 25.0 mph 69 % 0.00 in 257 W/m2
15:59 61.5 °F 52.0 °F 29.95 in West 14.0 mph 23.0 mph 71 % 0.00 in 193 W/m2
16:04 61.0 °F 51.1 °F 29.96 in West 14.0 mph 25.0 mph 70 % 0.00 in 200 W/m2
16:09 60.8 °F 51.3 °F 29.96 in West 15.0 mph 25.0 mph 71 % 0.00 in 311 W/m2
16:14 60.6 °F 51.9 °F 29.96 in West 13.0 mph 24.0 mph 73 % 0.00 in 599 W/m2
16:19 60.6 °F 51.5 °F 29.96 in West 12.0 mph 24.0 mph 72 % 0.00 in 183 W/m2
16:24 60.4 °F 51.7 °F 29.96 in West 12.0 mph 23.0 mph 73 % 0.00 in 216 W/m2
16:29 60.6 °F 52.3 °F 29.96 in West 11.0 mph 23.0 mph 74 % 0.00 in 645 W/m2
16:34 61.3 °F 52.6 °F 29.95 in West 10.0 mph 15.0 mph 73 % 0.00 in 686 W/m2
16:39 61.5 °F 51.6 °F 29.96 in West 11.0 mph 23.0 mph 70 % 0.00 in 169 W/m2
16:44 61.3 °F 51.1 °F 29.96 in West 12.0 mph 23.0 mph 69 % 0.00 in 146 W/m2
16:49 61.3 °F 51.1 °F 29.96 in West 13.0 mph 24.0 mph 69 % 0.00 in 540 W/m2
16:54 61.5 °F 51.3 °F 29.96 in West 13.0 mph 24.0 mph 69 % 0.00 in 464 W/m2
16:59 61.9 °F 51.6 °F 29.96 in West 11.0 mph 20.0 mph 69 % 0.00 in 448 W/m2
17:04 62.2 °F 51.9 °F 29.96 in West 10.0 mph 20.0 mph 69 % 0.00 in 438 W/m2
17:09 62.8 °F 51.7 °F 29.96 in West 11.0 mph 21.0 mph 67 % 0.00 in 427 W/m2
17:11 62.8 °F 51.2 °F 29.96 in West 12.0 mph 24.0 mph 66 % 0.00 in 383 W/m2
17:16 62.6 °F 50.2 °F 29.96 in West 15.0 mph 27.0 mph 64 % 0.00 in 424 W/m2
17:21 62.8 °F 49.6 °F 29.96 in West 15.0 mph 27.0 mph 62 % 0.00 in 403 W/m2
17:27 62.8 °F 49.1 °F 29.96 in West 14.0 mph 26.0 mph 61 % 0.00 in 383 W/m2
17:32 62.6 °F 49.4 °F 29.96 in West 14.0 mph 26.0 mph 62 % 0.00 in 371 W/m2
17:37 62.2 °F 49.5 °F 29.96 in West 15.0 mph 27.0 mph 63 % 0.00 in 93 W/m2
17:42 61.5 °F 49.6 °F 29.97 in West 15.0 mph 27.0 mph 65 % 0.00 in 135 W/m2
17:47 61.0 °F 49.9 °F 29.97 in West 13.0 mph 24.0 mph 67 % 0.00 in 114 W/m2
17:52 61.0 °F 50.3 °F 29.97 in West 12.0 mph 24.0 mph 68 % 0.00 in 250 W/m2
17:57 61.2 °F 50.5 °F 29.97 in West 12.0 mph 23.0 mph 68 % 0.00 in 301 W/m2
18:02 61.3 °F 50.3 °F 29.96 in West 12.0 mph 24.0 mph 67 % 0.00 in 287 W/m2
18:07 61.5 °F 50.5 °F 29.97 in West 13.0 mph 24.0 mph 67 % 0.00 in 274 W/m2
18:12 61.5 °F 50.5 °F 29.96 in West 13.0 mph 24.0 mph 67 % 0.00 in 98 W/m2
18:17 61.2 °F 50.5 °F 29.97 in West 12.0 mph 24.0 mph 68 % 0.00 in 102 W/m2
18:22 60.6 °F 50.4 °F 29.97 in West 11.0 mph 22.0 mph 69 % 0.00 in 163 W/m2
18:27 61.0 °F 51.1 °F 29.97 in West 11.0 mph 23.0 mph 70 % 0.00 in 255 W/m2
18:32 61.2 °F 50.5 °F 29.97 in West 12.0 mph 23.0 mph 68 % 0.00 in 209 W/m2
18:33 61.2 °F 50.5 °F 29.97 in West 12.0 mph 23.0 mph 68 % 0.00 in 202 W/m2
18:38 61.3 °F 50.7 °F 29.97 in West 13.0 mph 22.0 mph 68 % 0.00 in 195 W/m2
18:43 61.3 °F 50.3 °F 29.98 in West 12.0 mph 21.0 mph 67 % 0.00 in 185 W/m2
18:48 61.3 °F 50.3 °F 29.98 in West 11.0 mph 21.0 mph 67 % 0.00 in 174 W/m2
18:53 61.3 °F 49.9 °F 29.98 in West 10.0 mph 21.0 mph 66 % 0.00 in 160 W/m2
18:58 61.2 °F 49.3 °F 29.98 in West 11.0 mph 23.0 mph 65 % 0.00 in 148 W/m2
19:03 61.0 °F 49.5 °F 29.98 in West 11.0 mph 23.0 mph 66 % 0.00 in 134 W/m2
19:08 60.8 °F 49.4 °F 29.99 in West 11.0 mph 20.0 mph 66 % 0.00 in 127 W/m2
19:13 60.4 °F 49.4 °F 29.99 in West 11.0 mph 21.0 mph 67 % 0.00 in 116 W/m2
19:18 60.4 °F 49.8 °F 29.99 in West 9.0 mph 21.0 mph 68 % 0.00 in 84 W/m2
19:23 60.3 °F 49.7 °F 29.99 in West 7.0 mph 15.0 mph 68 % 0.00 in 53 W/m2
19:28 59.9 °F 50.1 °F 30.00 in West 7.0 mph 13.0 mph 70 % 0.00 in 51 W/m2
19:33 59.5 °F 49.7 °F 30.00 in West 6.0 mph 12.0 mph 70 % 0.00 in 60 W/m2
19:38 59.4 °F 50.0 °F 30.00 in West 7.0 mph 18.0 mph 71 % 0.00 in 39 W/m2
19:43 59.2 °F 50.2 °F 30.00 in West 7.0 mph 18.0 mph 72 % 0.00 in 39 W/m2
19:48 59.0 °F 50.4 °F 30.00 in West 8.0 mph 13.0 mph 73 % 0.00 in 23 W/m2
19:53 58.8 °F 50.2 °F 30.00 in West 9.0 mph 20.0 mph 73 % 0.00 in 23 W/m2
19:58 58.6 °F 50.4 °F 30.00 in West 9.0 mph 20.0 mph 74 % 0.00 in 25 W/m2
20:03 58.6 °F 50.4 °F 30.00 in West 7.0 mph 13.0 mph 74 % 0.00 in 16 W/m2
20:08 58.5 °F 50.2 °F 30.01 in West 7.0 mph 12.0 mph 74 % 0.00 in 14 W/m2
20:13 58.3 °F 50.0 °F 30.01 in West 8.0 mph 14.0 mph 74 % 0.00 in 9 W/m2
20:18 58.3 °F 50.4 °F 30.01 in West 9.0 mph 15.0 mph 75 % 0.00 in 5 W/m2
20:23 58.1 °F 50.2 °F 30.01 in West 8.0 mph 15.0 mph 75 % 0.00 in 0 W/m2
20:28 57.9 °F 50.0 °F 30.01 in West 7.0 mph 14.0 mph 75 % 0.00 in 0 W/m2
20:44 57.6 °F 50.0 °F 30.01 in West 9.0 mph 16.0 mph 76 % 0.00 in 0 W/m2
20:49 57.6 °F 50.4 °F 30.01 in West 9.0 mph 16.0 mph 77 % 0.00 in 0 W/m2
20:54 57.4 °F 50.2 °F 30.02 in West 7.0 mph 13.0 mph 77 % 0.00 in 0 W/m2
20:59 57.0 °F 50.2 °F 30.02 in WSW 6.0 mph 11.0 mph 78 % 0.00 in 0 W/m2
21:04 57.0 °F 50.2 °F 30.02 in West 7.0 mph 10.0 mph 78 % 0.00 in 0 W/m2
21:09 56.8 °F 50.1 °F 30.02 in WSW 7.0 mph 11.0 mph 78 % 0.00 in 0 W/m2
21:14 56.8 °F 50.1 °F 30.02 in WSW 8.0 mph 13.0 mph 78 % 0.00 in 0 W/m2
21:19 56.8 °F 50.4 °F 30.02 in West 8.0 mph 16.0 mph 79 % 0.00 in 0 W/m2
21:24 56.8 °F 50.4 °F 30.02 in West 9.0 mph 18.0 mph 79 % 0.00 in 0 W/m2
21:29 56.8 °F 50.4 °F 30.02 in West 10.0 mph 18.0 mph 79 % 0.00 in 0 W/m2
21:34 56.8 °F 50.4 °F 30.02 in West 10.0 mph 15.0 mph 79 % 0.00 in 0 W/m2
21:39 56.8 °F 50.7 °F 30.03 in West 9.0 mph 14.0 mph 80 % 0.00 in 0 W/m2
21:44 56.8 °F 50.7 °F 30.03 in West 8.0 mph 14.0 mph 80 % 0.00 in 0 W/m2
21:49 56.8 °F 50.7 °F 30.03 in West 7.0 mph 11.0 mph 80 % 0.00 in 0 W/m2
21:54 56.8 °F 50.7 °F 30.03 in West 7.0 mph 11.0 mph 80 % 0.00 in 0 W/m2
21:59 57.0 °F 50.6 °F 30.03 in West 7.0 mph 12.0 mph 79 % 0.00 in 0 W/m2
22:04 56.8 °F 50.4 °F 30.04 in West 7.0 mph 12.0 mph 79 % 0.00 in 0 W/m2
22:09 56.8 °F 50.7 °F 30.04 in West 7.0 mph 12.0 mph 80 % 0.00 in 0 W/m2
22:14 56.8 °F 50.7 °F 30.04 in West 6.0 mph 10.0 mph 80 % 0.00 in 0 W/m2
22:19 56.7 °F 50.6 °F 30.04 in WSW 6.0 mph 11.0 mph 80 % 0.00 in 0 W/m2
22:24 56.7 °F 50.6 °F 30.04 in WSW 7.0 mph 12.0 mph 80 % 0.00 in 0 W/m2
22:29 56.7 °F 50.9 °F 30.04 in West 8.0 mph 12.0 mph 81 % 0.00 in 0 W/m2
22:30 56.7 °F 50.9 °F 30.04 in West 8.0 mph 12.0 mph 81 % 0.00 in 0 W/m2
22:35 56.7 °F 50.9 °F 30.04 in West 9.0 mph 15.0 mph 81 % 0.00 in 0 W/m2
22:40 56.7 °F 50.9 °F 30.04 in West 10.0 mph 16.0 mph 81 % 0.00 in 0 W/m2
22:45 56.8 °F 51.1 °F 30.04 in West 10.0 mph 16.0 mph 81 % 0.00 in 0 W/m2
22:50 56.8 °F 51.1 °F 30.03 in West 10.0 mph 15.0 mph 81 % 0.00 in 0 W/m2
22:55 56.8 °F 51.1 °F 30.03 in West 10.0 mph 19.0 mph 81 % 0.00 in 0 W/m2
23:00 56.8 °F 51.1 °F 30.04 in West 11.0 mph 19.0 mph 81 % 0.00 in 0 W/m2
23:05 56.8 °F 51.1 °F 30.04 in West 10.0 mph 15.0 mph 81 % 0.00 in 0 W/m2
23:10 56.7 °F 51.2 °F 30.04 in West 9.0 mph 16.0 mph 82 % 0.00 in 0 W/m2
23:15 56.8 °F 51.4 °F 30.03 in West 10.0 mph 19.0 mph 82 % 0.00 in 0 W/m2
23:20 56.8 °F 51.1 °F 30.04 in West 10.0 mph 19.0 mph 81 % 0.00 in 0 W/m2
23:25 56.8 °F 51.4 °F 30.04 in West 10.0 mph 19.0 mph 82 % 0.00 in 0 W/m2
23:30 56.8 °F 51.4 °F 30.04 in West 10.0 mph 18.0 mph 82 % 0.00 in 0 W/m2
23:35 56.7 °F 51.2 °F 30.04 in West 10.0 mph 18.0 mph 82 % 0.00 in 0 W/m2
23:40 56.7 °F 51.2 °F 30.04 in West 10.0 mph 16.0 mph 82 % 0.00 in 0 W/m2
23:45 56.7 °F 51.2 °F 30.04 in West 11.0 mph 22.0 mph 82 % 0.00 in 0 W/m2
23:50 56.7 °F 51.6 °F 30.04 in West 11.0 mph 22.0 mph 83 % 0.00 in 0 W/m2
23:55 56.7 °F 51.6 °F 30.05 in West 11.0 mph 19.0 mph 83 % 0.00 in 0 W/m2
Delerius-Weather
Compliments of Weather Underground - 2.25 mb

Data updates at regular intervals.